sensor_id;sensor_type;location;lat;lon;timestamp;pressure;altitude;pressure_sealevel;temperature;humidity
72570;BME280;60594;50.204;8.844;2023-04-10T00:01:45;100695.09;;;7.26;73.92
72570;BME280;60594;50.204;8.844;2023-04-10T00:04:11;100692.22;;;7.15;73.82
72570;BME280;60594;50.204;8.844;2023-04-10T00:06:39;100699.50;;;7.12;74.57
72570;BME280;60594;50.204;8.844;2023-04-10T00:09:08;100692.44;;;6.96;75.48
72570;BME280;60594;50.204;8.844;2023-04-10T00:11:35;100695.03;;;6.82;76.51
72570;BME280;60594;50.204;8.844;2023-04-10T00:14:01;100692.47;;;6.81;77.35
72570;BME280;60594;50.204;8.844;2023-04-10T00:16:28;100694.25;;;6.80;76.17
72570;BME280;60594;50.204;8.844;2023-04-10T00:18:54;100692.38;;;6.82;76.56
72570;BME280;60594;50.204;8.844;2023-04-10T00:21:21;100693.25;;;6.83;76.59
72570;BME280;60594;50.204;8.844;2023-04-10T00:23:47;100692.19;;;6.85;76.10
72570;BME280;60594;50.204;8.844;2023-04-10T00:26:14;100691.50;;;6.82;75.83
72570;BME280;60594;50.204;8.844;2023-04-10T00:28:42;100686.22;;;6.82;75.49
72570;BME280;60594;50.204;8.844;2023-04-10T00:31:08;100695.97;;;6.81;75.33
72570;BME280;60594;50.204;8.844;2023-04-10T00:33:35;100696.13;;;6.78;76.10
72570;BME280;60594;50.204;8.844;2023-04-10T00:36:01;100684.19;;;6.71;76.28
72570;BME280;60594;50.204;8.844;2023-04-10T00:38:28;100689.72;;;6.67;76.96
72570;BME280;60594;50.204;8.844;2023-04-10T00:40:54;100688.69;;;6.69;76.88
72570;BME280;60594;50.204;8.844;2023-04-10T00:43:21;100685.22;;;6.69;76.42
72570;BME280;60594;50.204;8.844;2023-04-10T00:45:47;100685.22;;;6.69;76.58
72570;BME280;60594;50.204;8.844;2023-04-10T00:48:14;100688.03;;;6.66;76.65
72570;BME280;60594;50.204;8.844;2023-04-10T00:50:40;100682.91;;;6.63;76.76
72570;BME280;60594;50.204;8.844;2023-04-10T00:53:07;100682.97;;;6.61;76.60
72570;BME280;60594;50.204;8.844;2023-04-10T00:55:34;100693.56;;;6.61;76.82
72570;BME280;60594;50.204;8.844;2023-04-10T00:58:01;100688.19;;;6.63;76.43
72570;BME280;60594;50.204;8.844;2023-04-10T01:00:27;100688.28;;;6.61;76.16
72570;BME280;60594;50.204;8.844;2023-04-10T01:02:54;100688.66;;;6.55;77.31
72570;BME280;60594;50.204;8.844;2023-04-10T01:05:21;100682.47;;;6.39;77.74
72570;BME280;60594;50.204;8.844;2023-04-10T01:08:00;100684.28;;;6.39;77.68
72570;BME280;60594;50.204;8.844;2023-04-10T01:10:40;100689.66;;;6.37;78.37
72570;BME280;60594;50.204;8.844;2023-04-10T01:13:30;100694.16;;;6.35;78.17
72570;BME280;60594;50.204;8.844;2023-04-10T01:21:44;100698.97;;;6.29;77.23
72570;BME280;60594;50.204;8.844;2023-04-10T01:24:20;100704.31;;;6.27;75.85
72570;BME280;60594;50.204;8.844;2023-04-10T01:27:09;100700.47;;;6.17;76.34
72570;BME280;60594;50.204;8.844;2023-04-10T01:29:43;100702.84;;;6.06;78.93
72570;BME280;60594;50.204;8.844;2023-04-10T01:32:13;100699.59;;;6.01;79.11
72570;BME280;60594;50.204;8.844;2023-04-10T01:34:50;100697.91;;;6.00;79.66
72570;BME280;60594;50.204;8.844;2023-04-10T01:37:21;100706.06;;;5.96;79.41
72570;BME280;60594;50.204;8.844;2023-04-10T01:39:58;100704.44;;;5.93;78.86
72570;BME280;60594;50.204;8.844;2023-04-10T01:42:26;100702.47;;;5.97;78.94
72570;BME280;60594;50.204;8.844;2023-04-10T01:44:54;100704.44;;;5.93;78.14
72570;BME280;60594;50.204;8.844;2023-04-10T01:47:23;100706.56;;;5.87;79.47
72570;BME280;60594;50.204;8.844;2023-04-10T01:49:51;100705.78;;;5.85;80.42
72570;BME280;60594;50.204;8.844;2023-04-10T01:52:19;100702.81;;;5.74;80.19
72570;BME280;60594;50.204;8.844;2023-04-10T01:54:52;100706.31;;;5.74;80.46
72570;BME280;60594;50.204;8.844;2023-04-10T01:57:25;100696.66;;;5.73;80.86
72570;BME280;60594;50.204;8.844;2023-04-10T01:59:57;100696.91;;;5.69;80.20
72570;BME280;60594;50.204;8.844;2023-04-10T02:02:24;100691.72;;;5.67;79.93
72570;BME280;60594;50.204;8.844;2023-04-10T02:04:51;100697.75;;;5.69;79.50
72570;BME280;60594;50.204;8.844;2023-04-10T02:08:01;100685.56;;;5.67;80.33
72570;BME280;60594;50.204;8.844;2023-04-10T02:13:07;100673.00;;;5.55;81.54
72570;BME280;60594;50.204;8.844;2023-04-10T02:15:38;100670.41;;;5.53;81.22
72570;BME280;60594;50.204;8.844;2023-04-10T02:18:09;100664.97;;;5.56;81.25
72570;BME280;60594;50.204;8.844;2023-04-10T02:20:36;100665.06;;;5.55;81.06
72570;BME280;60594;50.204;8.844;2023-04-10T02:23:03;100657.22;;;5.53;81.47
72570;BME280;60594;50.204;8.844;2023-04-10T02:25:34;100671.22;;;5.55;81.22
72570;BME280;60594;50.204;8.844;2023-04-10T02:28:04;100652.00;;;5.52;81.19
72570;BME280;60594;50.204;8.844;2023-04-10T02:30:32;100659.28;;;5.64;81.47
72570;BME280;60594;50.204;8.844;2023-04-10T02:32:59;100656.31;;;5.70;80.49
72570;BME280;60594;50.204;8.844;2023-04-10T02:35:28;100654.53;;;5.70;80.79
72570;BME280;60594;50.204;8.844;2023-04-10T02:37:55;100654.53;;;5.70;80.73
72570;BME280;60594;50.204;8.844;2023-04-10T02:40:22;100651.72;;;5.73;80.41
72570;BME280;60594;50.204;8.844;2023-04-10T02:43:09;100652.50;;;5.75;80.07
72570;BME280;60594;50.204;8.844;2023-04-10T02:45:36;100651.81;;;5.72;81.04
72570;BME280;60594;50.204;8.844;2023-04-10T02:48:04;100651.47;;;5.78;79.56
72570;BME280;60594;50.204;8.844;2023-04-10T02:50:30;100656.75;;;5.78;80.15
72570;BME280;60594;50.204;8.844;2023-04-10T02:52:58;100656.75;;;5.78;80.89
72570;BME280;60594;50.204;8.844;2023-04-10T02:55:25;100661.03;;;5.80;79.90
72570;BME280;60594;50.204;8.844;2023-04-10T02:57:51;100659.31;;;5.79;80.41
72570;BME280;60594;50.204;8.844;2023-04-10T03:00:18;100661.91;;;5.81;80.13
72570;BME280;60594;50.204;8.844;2023-04-10T03:03:22;100651.38;;;5.79;80.24
72570;BME280;60594;50.204;8.844;2023-04-10T03:05:53;100651.47;;;5.78;79.67
72570;BME280;60594;50.204;8.844;2023-04-10T03:08:26;100655.13;;;5.75;80.43
72570;BME280;60594;50.204;8.844;2023-04-10T03:10:52;100639.50;;;5.71;80.73
72570;BME280;60594;50.204;8.844;2023-04-10T03:13:19;100648.31;;;5.71;80.59
72570;BME280;60594;50.204;8.844;2023-04-10T03:15:45;100648.16;;;5.74;79.53
72570;BME280;60594;50.204;8.844;2023-04-10T03:18:12;100652.81;;;5.69;79.35
72570;BME280;60594;50.204;8.844;2023-04-10T03:20:40;100646.84;;;5.66;80.02
72570;BME280;60594;50.204;8.844;2023-04-10T03:23:07;100645.97;;;5.65;81.18
72570;BME280;60594;50.204;8.844;2023-04-10T03:25:34;100647.00;;;5.63;80.34
72570;BME280;60594;50.204;8.844;2023-04-10T03:28:02;100644.28;;;5.64;80.18
72570;BME280;60594;50.204;8.844;2023-04-10T03:30:29;100646.06;;;5.64;80.86
72570;BME280;60594;50.204;8.844;2023-04-10T03:32:55;100643.41;;;5.64;80.54
72570;BME280;60594;50.204;8.844;2023-04-10T03:35:22;100634.00;;;5.58;80.78
72570;BME280;60594;50.204;8.844;2023-04-10T03:37:48;100637.84;;;5.53;80.48
72570;BME280;60594;50.204;8.844;2023-04-10T03:40:15;100628.13;;;5.53;81.72
72570;BME280;60594;50.204;8.844;2023-04-10T03:42:42;100641.13;;;5.58;80.97
72570;BME280;60594;50.204;8.844;2023-04-10T03:45:09;100629.59;;;5.59;81.68
72570;BME280;60594;50.204;8.844;2023-04-10T03:47:35;100626.94;;;5.59;80.61
72570;BME280;60594;50.204;8.844;2023-04-10T03:50:05;100614.59;;;5.59;79.82
72570;BME280;60594;50.204;8.844;2023-04-10T03:52:39;100624.16;;;5.62;80.43
72570;BME280;60594;50.204;8.844;2023-04-10T03:55:10;100617.84;;;5.64;79.78
72570;BME280;60594;50.204;8.844;2023-04-10T03:57:37;100626.00;;;5.60;81.57
72570;BME280;60594;50.204;8.844;2023-04-10T04:00:05;100629.44;;;5.62;81.05
72570;BME280;60594;50.204;8.844;2023-04-10T04:02:47;100620.63;;;5.61;81.68
72570;BME280;60594;50.204;8.844;2023-04-10T04:05:25;100619.19;;;5.56;81.36
72570;BME280;60594;50.204;8.844;2023-04-10T04:08:21;100623.53;;;5.57;81.46
72570;BME280;60594;50.204;8.844;2023-04-10T04:11:00;100617.47;;;5.55;81.63
72570;BME280;60594;50.204;8.844;2023-04-10T04:13:35;100621.06;;;5.54;81.78
72570;BME280;60594;50.204;8.844;2023-04-10T04:16:08;100617.72;;;5.50;81.96
72570;BME280;60594;50.204;8.844;2023-04-10T04:19:01;100622.06;;;5.51;81.27
72570;BME280;60594;50.204;8.844;2023-04-10T04:21:32;100627.09;;;5.56;80.66
72570;BME280;60594;50.204;8.844;2023-04-10T04:24:12;100623.63;;;5.55;81.87
72570;BME280;60594;50.204;8.844;2023-04-10T04:26:56;100626.28;;;5.38;83.06
72570;BME280;60594;50.204;8.844;2023-04-10T04:29:49;100626.59;;;5.32;83.31
72570;BME280;60594;50.204;8.844;2023-04-10T04:32:36;100621.31;;;5.32;83.04
72570;BME280;60594;50.204;8.844;2023-04-10T04:35:13;100616.97;;;5.31;83.53
72570;BME280;60594;50.204;8.844;2023-04-10T04:37:56;100623.03;;;5.33;83.95
72570;BME280;60594;50.204;8.844;2023-04-10T04:40:42;100623.66;;;5.38;82.11
72570;BME280;60594;50.204;8.844;2023-04-10T04:43:35;100625.50;;;5.36;82.25
72570;BME280;60594;50.204;8.844;2023-04-10T04:46:22;100625.56;;;5.35;81.52
72570;BME280;60594;50.204;8.844;2023-04-10T04:49:07;100631.06;;;5.32;82.14
72570;BME280;60594;50.204;8.844;2023-04-10T04:51:48;100630.13;;;4.82;84.20
72570;BME280;60594;50.204;8.844;2023-04-10T04:54:37;100632.38;;;4.89;85.06
72570;BME280;60594;50.204;8.844;2023-04-10T04:57:14;100627.75;;;4.76;85.49
72570;BME280;60594;50.204;8.844;2023-04-10T04:59:53;100632.22;;;4.75;86.11
72570;BME280;60594;50.204;8.844;2023-04-10T05:02:42;100629.41;;;4.43;87.50
72570;BME280;60594;50.204;8.844;2023-04-10T05:05:27;100623.59;;;4.36;88.93
72570;BME280;60594;50.204;8.844;2023-04-10T05:08:04;100628.09;;;4.34;88.15
72570;BME280;60594;50.204;8.844;2023-04-10T05:10:47;100620.84;;;4.56;88.07
72570;BME280;60594;50.204;8.844;2023-04-10T05:13:37;100630.00;;;4.66;88.35
72570;BME280;60594;50.204;8.844;2023-04-10T05:16:24;100629.88;;;4.69;87.93
72570;BME280;60594;50.204;8.844;2023-04-10T05:19:00;100638.50;;;4.73;87.80
72570;BME280;60594;50.204;8.844;2023-04-10T05:21:59;100632.75;;;4.82;88.39
72570;BME280;60594;50.204;8.844;2023-04-10T05:24:44;100642.84;;;4.74;88.09
72570;BME280;60594;50.204;8.844;2023-04-10T05:27:21;100637.16;;;4.81;88.79
72570;BME280;60594;50.204;8.844;2023-04-10T05:30:07;100638.97;;;4.98;87.55
72570;BME280;60594;50.204;8.844;2023-04-10T05:32:40;100619.25;;;4.88;86.60
72570;BME280;60594;50.204;8.844;2023-04-10T05:35:26;100638.06;;;4.99;87.84
72570;BME280;60594;50.204;8.844;2023-04-10T05:37:57;100629.50;;;4.94;88.24
72570;BME280;60594;50.204;8.844;2023-04-10T05:40:53;100641.88;;;4.93;89.29
72570;BME280;60594;50.204;8.844;2023-04-10T05:43:43;100651.31;;;4.80;89.92
72570;BME280;60594;50.204;8.844;2023-04-10T05:46:24;100648.06;;;4.75;89.57
72570;BME280;60594;50.204;8.844;2023-04-10T05:49:20;100649.53;;;4.81;90.17
72570;BME280;60594;50.204;8.844;2023-04-10T05:52:08;100649.94;;;4.90;89.67
72570;BME280;60594;50.204;8.844;2023-04-10T05:54:58;100651.97;;;4.85;89.13
72570;BME280;60594;50.204;8.844;2023-04-10T05:57:43;100658.63;;;4.57;89.66
72570;BME280;60594;50.204;8.844;2023-04-10T06:00:28;100665.31;;;4.47;90.32
72570;BME280;60594;50.204;8.844;2023-04-10T06:03:17;100663.63;;;4.63;89.44
72570;BME280;60594;50.204;8.844;2023-04-10T06:05:51;100664.00;;;4.55;89.62
72570;BME280;60594;50.204;8.844;2023-04-10T06:08:17;100669.47;;;4.69;90.26
72570;BME280;60594;50.204;8.844;2023-04-10T06:10:45;100658.69;;;4.74;89.35
72570;BME280;60594;50.204;8.844;2023-04-10T06:13:12;100662.00;;;4.77;90.19
72570;BME280;60594;50.204;8.844;2023-04-10T06:15:40;100661.09;;;4.95;90.42
72570;BME280;60594;50.204;8.844;2023-04-10T06:18:07;100657.69;;;5.10;89.18
72570;BME280;60594;50.204;8.844;2023-04-10T06:20:34;100658.41;;;5.14;89.26
72570;BME280;60594;50.204;8.844;2023-04-10T06:23:00;100654.44;;;5.05;89.25
72570;BME280;60594;50.204;8.844;2023-04-10T06:25:27;100660.78;;;5.18;88.94
72570;BME280;60594;50.204;8.844;2023-04-10T06:27:54;100651.25;;;5.33;87.87
72570;BME280;60594;50.204;8.844;2023-04-10T06:30:21;100647.59;;;5.35;88.27
72570;BME280;60594;50.204;8.844;2023-04-10T06:32:47;100645.94;;;5.50;87.54
72570;BME280;60594;50.204;8.844;2023-04-10T06:35:14;100649.88;;;5.58;87.97
72570;BME280;60594;50.204;8.844;2023-04-10T06:37:41;100634.44;;;5.51;88.57
72570;BME280;60594;50.204;8.844;2023-04-10T06:40:10;100645.69;;;5.54;88.23
72570;BME280;60594;50.204;8.844;2023-04-10T06:42:36;100643.25;;;5.67;89.02
72570;BME280;60594;50.204;8.844;2023-04-10T06:45:12;100643.38;;;5.48;88.29
72570;BME280;60594;50.204;8.844;2023-04-10T06:47:38;100653.16;;;5.63;88.16
72570;BME280;60594;50.204;8.844;2023-04-10T06:50:05;100647.44;;;5.88;86.95
72570;BME280;60594;50.204;8.844;2023-04-10T06:52:31;100643.19;;;6.01;87.15
72570;BME280;60594;50.204;8.844;2023-04-10T06:54:58;100642.25;;;6.02;86.27
72570;BME280;60594;50.204;8.844;2023-04-10T06:57:24;100637.44;;;5.93;87.33
72570;BME280;60594;50.204;8.844;2023-04-10T06:59:51;100643.88;;;6.04;88.42
72570;BME280;60594;50.204;8.844;2023-04-10T07:02:17;100638.41;;;5.92;88.80
72570;BME280;60594;50.204;8.844;2023-04-10T07:04:44;100643.72;;;6.07;89.82
72570;BME280;60594;50.204;8.844;2023-04-10T07:07:11;100639.13;;;6.26;88.32
72570;BME280;60594;50.204;8.844;2023-04-10T07:09:38;100647.53;;;6.17;87.24
72570;BME280;60594;50.204;8.844;2023-04-10T07:12:05;100639.53;;;6.34;88.17
72570;BME280;60594;50.204;8.844;2023-04-10T07:14:32;100649.69;;;6.26;88.69
72570;BME280;60594;50.204;8.844;2023-04-10T07:17:01;100637.56;;;6.22;88.36
72570;BME280;60594;50.204;8.844;2023-04-10T07:19:28;100627.91;;;6.37;89.00
72570;BME280;60594;50.204;8.844;2023-04-10T07:21:54;100630.47;;;6.54;90.10
72570;BME280;60594;50.204;8.844;2023-04-10T07:24:21;100629.00;;;6.64;87.41
72570;BME280;60594;50.204;8.844;2023-04-10T07:26:47;100631.38;;;6.84;87.55
72570;BME280;60594;50.204;8.844;2023-04-10T07:29:14;100624.72;;;7.07;85.76
72570;BME280;60594;50.204;8.844;2023-04-10T07:31:41;100627.69;;;7.16;84.21
72570;BME280;60594;50.204;8.844;2023-04-10T07:34:09;100624.41;;;7.41;83.90
72570;BME280;60594;50.204;8.844;2023-04-10T07:36:35;100619.13;;;7.55;79.72
72570;BME280;60594;50.204;8.844;2023-04-10T07:39:02;100613.72;;;7.70;79.81
72570;BME280;60594;50.204;8.844;2023-04-10T07:41:28;100622.34;;;7.88;79.01
72570;BME280;60594;50.204;8.844;2023-04-10T07:43:55;100623.81;;;8.06;79.08
72570;BME280;60594;50.204;8.844;2023-04-10T07:46:22;100620.50;;;8.16;76.42
72570;BME280;60594;50.204;8.844;2023-04-10T07:48:48;100623.44;;;8.40;78.52
72570;BME280;60594;50.204;8.844;2023-04-10T07:51:15;100619.59;;;8.58;76.30
72570;BME280;60594;50.204;8.844;2023-04-10T07:53:42;100613.66;;;8.67;75.51
72570;BME280;60594;50.204;8.844;2023-04-10T07:56:14;100610.72;;;8.71;75.65
72570;BME280;60594;50.204;8.844;2023-04-10T07:58:41;100606.59;;;8.92;76.60
72570;BME280;60594;50.204;8.844;2023-04-10T08:01:08;100594.63;;;8.99;71.63
72570;BME280;60594;50.204;8.844;2023-04-10T08:03:41;100600.06;;;9.23;73.43
72570;BME280;60594;50.204;8.844;2023-04-10T08:06:09;100603.50;;;9.37;73.85
72570;BME280;60594;50.204;8.844;2023-04-10T08:08:40;100593.09;;;9.47;72.18
72570;BME280;60594;50.204;8.844;2023-04-10T08:11:24;100590.84;;;9.66;72.08
72570;BME280;60594;50.204;8.844;2023-04-10T08:13:57;100592.41;;;9.81;71.35
72570;BME280;60594;50.204;8.844;2023-04-10T08:16:24;100586.53;;;9.88;69.68
72570;BME280;60594;50.204;8.844;2023-04-10T08:18:53;100585.34;;;10.05;69.56
72570;BME280;60594;50.204;8.844;2023-04-10T08:21:20;100588.00;;;10.17;66.66
72570;BME280;60594;50.204;8.844;2023-04-10T08:23:51;100583.16;;;10.35;68.35
72570;BME280;60594;50.204;8.844;2023-04-10T08:26:18;100581.28;;;10.48;65.64
72570;BME280;60594;50.204;8.844;2023-04-10T08:28:47;100576.78;;;10.61;65.24
72570;BME280;60594;50.204;8.844;2023-04-10T08:31:18;100571.38;;;10.74;65.38
72570;BME280;60594;50.204;8.844;2023-04-10T08:33:46;100576.78;;;10.96;63.21
72570;BME280;60594;50.204;8.844;2023-04-10T08:36:13;100583.66;;;11.22;63.29
72570;BME280;60594;50.204;8.844;2023-04-10T08:38:43;100575.31;;;11.48;66.03
72570;BME280;60594;50.204;8.844;2023-04-10T08:41:15;100565.16;;;11.53;65.08
72570;BME280;60594;50.204;8.844;2023-04-10T08:43:42;100560.44;;;11.68;62.36
72570;BME280;60594;50.204;8.844;2023-04-10T08:46:11;100558.75;;;12.00;59.88
72570;BME280;60594;50.204;8.844;2023-04-10T08:48:50;100549.94;;;12.62;58.88
72570;BME280;60594;50.204;8.844;2023-04-10T08:51:20;100544.81;;;13.22;57.37
72570;BME280;60594;50.204;8.844;2023-04-10T08:53:50;100540.63;;;13.29;56.44
72570;BME280;60594;50.204;8.844;2023-04-10T08:56:18;100541.16;;;13.44;54.89
72570;BME280;60594;50.204;8.844;2023-04-10T08:58:44;100543.41;;;13.69;53.45
72570;BME280;60594;50.204;8.844;2023-04-10T09:01:11;100528.13;;;14.00;52.00
72570;BME280;60594;50.204;8.844;2023-04-10T09:03:38;100529.69;;;14.42;52.54
72570;BME280;60594;50.204;8.844;2023-04-10T09:06:04;100522.78;;;14.77;52.85
72570;BME280;60594;50.204;8.844;2023-04-10T09:08:32;100519.22;;;15.15;50.88
72570;BME280;60594;50.204;8.844;2023-04-10T09:10:59;100520.00;;;15.53;50.20
72570;BME280;60594;50.204;8.844;2023-04-10T09:13:37;100524.97;;;15.39;50.21
72570;BME280;60594;50.204;8.844;2023-04-10T09:16:04;100519.22;;;14.96;48.42
72570;BME280;60594;50.204;8.844;2023-04-10T09:18:48;100513.31;;;14.73;48.79
72570;BME280;60594;50.204;8.844;2023-04-10T09:21:20;100505.97;;;14.56;48.05
72570;BME280;60594;50.204;8.844;2023-04-10T09:23:47;100503.13;;;14.48;47.66
72570;BME280;60594;50.204;8.844;2023-04-10T09:26:32;100504.13;;;14.38;47.04
72570;BME280;60594;50.204;8.844;2023-04-10T09:29:04;100498.47;;;14.31;49.20
72570;BME280;60594;50.204;8.844;2023-04-10T09:31:34;100487.75;;;14.88;48.96
72570;BME280;60594;50.204;8.844;2023-04-10T09:36:32;100484.75;;;15.10;45.62
72570;BME280;60594;50.204;8.844;2023-04-10T09:38:58;100477.03;;;15.44;45.48
72570;BME280;60594;50.204;8.844;2023-04-10T09:41:25;100468.56;;;15.39;44.27
72570;BME280;60594;50.204;8.844;2023-04-10T09:44:28;100466.97;;;14.90;46.46
72570;BME280;60594;50.204;8.844;2023-04-10T09:47:14;100462.16;;;15.03;44.38
72570;BME280;60594;50.204;8.844;2023-04-10T09:49:59;100462.31;;;14.92;46.51
72570;BME280;60594;50.204;8.844;2023-04-10T09:52:27;100462.06;;;14.76;45.30
72570;BME280;60594;50.204;8.844;2023-04-10T09:55:04;100455.22;;;15.01;45.47
72570;BME280;60594;50.204;8.844;2023-04-10T09:57:32;100453.59;;;14.62;45.53
72570;BME280;60594;50.204;8.844;2023-04-10T10:00:04;100447.97;;;14.36;45.95
72570;BME280;60594;50.204;8.844;2023-04-10T10:02:37;100447.81;;;14.57;46.25
72570;BME280;60594;50.204;8.844;2023-04-10T10:05:08;100441.41;;;14.77;47.22
72570;BME280;60594;50.204;8.844;2023-04-10T10:07:35;100447.22;;;14.82;48.92
72570;BME280;60594;50.204;8.844;2023-04-10T10:10:02;100440.44;;;14.87;46.70
72570;BME280;60594;50.204;8.844;2023-04-10T10:12:34;100418.84;;;15.25;45.50
72570;BME280;60594;50.204;8.844;2023-04-10T10:15:08;100425.78;;;15.55;44.63
72570;BME280;60594;50.204;8.844;2023-04-10T10:17:42;100416.09;;;15.44;45.42
72570;BME280;60594;50.204;8.844;2023-04-10T10:20:12;100411.03;;;15.68;43.98
72570;BME280;60594;50.204;8.844;2023-04-10T10:22:38;100404.88;;;15.22;44.88
72570;BME280;60594;50.204;8.844;2023-04-10T10:25:06;100413.66;;;15.78;44.72
72570;BME280;60594;50.204;8.844;2023-04-10T10:27:36;100415.34;;;16.23;43.42
72570;BME280;60594;50.204;8.844;2023-04-10T10:30:03;100409.19;;;16.48;41.06
72570;BME280;60594;50.204;8.844;2023-04-10T10:32:31;100400.78;;;16.69;42.44
72570;BME280;60594;50.204;8.844;2023-04-10T10:34:59;100397.34;;;16.41;40.44
72570;BME280;60594;50.204;8.844;2023-04-10T10:37:28;100393.88;;;16.31;40.60
72570;BME280;60594;50.204;8.844;2023-04-10T10:40:00;100386.84;;;16.48;43.20
72570;BME280;60594;50.204;8.844;2023-04-10T10:42:37;100385.41;;;16.26;41.52
72570;BME280;60594;50.204;8.844;2023-04-10T10:45:10;100390.66;;;16.28;41.69
72570;BME280;60594;50.204;8.844;2023-04-10T10:47:50;100388.16;;;16.44;46.66
72570;BME280;60594;50.204;8.844;2023-04-10T10:50:17;100377.19;;;16.28;41.64
72570;BME280;60594;50.204;8.844;2023-04-10T10:52:51;100375.03;;;15.96;42.32
72570;BME280;60594;50.204;8.844;2023-04-10T10:57:54;100367.28;;;15.76;42.92
72570;BME280;60594;50.204;8.844;2023-04-10T11:00:22;100369.44;;;16.25;43.19
72570;BME280;60594;50.204;8.844;2023-04-10T11:05:50;100357.31;;;16.38;42.51
72570;BME280;60594;50.204;8.844;2023-04-10T11:19:08;100334.75;;;17.16;41.39
72570;BME280;60594;50.204;8.844;2023-04-10T11:22:03;100329.94;;;16.94;41.69
72570;BME280;60594;50.204;8.844;2023-04-10T11:24:58;100319.50;;;16.22;42.69
72570;BME280;60594;50.204;8.844;2023-04-10T11:30:24;100298.47;;;16.95;42.27
72570;BME280;60594;50.204;8.844;2023-04-10T11:32:52;100299.31;;;17.37;41.59
72570;BME280;60594;50.204;8.844;2023-04-10T11:35:19;100284.56;;;17.07;40.80
72570;BME280;60594;50.204;8.844;2023-04-10T11:37:46;100277.41;;;17.32;42.52
72570;BME280;60594;50.204;8.844;2023-04-10T11:40:13;100286.94;;;17.10;40.47
72570;BME280;60594;50.204;8.844;2023-04-10T11:42:39;100270.28;;;17.15;41.60
72570;BME280;60594;50.204;8.844;2023-04-10T11:45:27;100279.13;;;17.41;41.00
72570;BME280;60594;50.204;8.844;2023-04-10T11:47:54;100279.00;;;17.50;43.21
72570;BME280;60594;50.204;8.844;2023-04-10T11:50:20;100270.81;;;17.76;43.86
72570;BME280;60594;50.204;8.844;2023-04-10T11:52:50;100268.28;;;17.82;40.06
72570;BME280;60594;50.204;8.844;2023-04-10T11:55:16;100266.59;;;17.89;39.91
72570;BME280;60594;50.204;8.844;2023-04-10T11:57:44;100256.84;;;17.96;45.14
72570;BME280;60594;50.204;8.844;2023-04-10T12:00:12;100248.72;;;17.72;40.90
72570;BME280;60594;50.204;8.844;2023-04-10T12:02:51;100247.88;;;18.04;45.35
72570;BME280;60594;50.204;8.844;2023-04-10T12:05:18;100244.34;;;18.03;42.08
72570;BME280;60594;50.204;8.844;2023-04-10T12:07:44;100245.25;;;17.30;39.85
72570;BME280;60594;50.204;8.844;2023-04-10T12:10:11;100243.63;;;16.96;41.06
72570;BME280;60594;50.204;8.844;2023-04-10T12:13:02;100241.34;;;17.17;43.44
72570;BME280;60594;50.204;8.844;2023-04-10T12:15:28;100229.66;;;17.50;42.93
72570;BME280;60594;50.204;8.844;2023-04-10T12:17:55;100232.44;;;17.24;41.85
72570;BME280;60594;50.204;8.844;2023-04-10T12:20:22;100227.13;;;16.99;41.96
72570;BME280;60594;50.204;8.844;2023-04-10T12:22:53;100220.94;;;17.06;44.62
72570;BME280;60594;50.204;8.844;2023-04-10T12:25:21;100221.63;;;17.16;42.88
72570;BME280;60594;50.204;8.844;2023-04-10T12:27:48;100213.34;;;16.94;41.10
72570;BME280;60594;50.204;8.844;2023-04-10T12:30:16;100212.06;;;16.80;41.76
72570;BME280;60594;50.204;8.844;2023-04-10T12:32:50;100200.09;;;16.66;41.86
72570;BME280;60594;50.204;8.844;2023-04-10T12:35:17;100196.13;;;16.78;41.23
72570;BME280;60594;50.204;8.844;2023-04-10T12:40:14;100194.69;;;17.08;41.71
72570;BME280;60594;50.204;8.844;2023-04-10T12:42:42;100192.41;;;17.37;42.93
72570;BME280;60594;50.204;8.844;2023-04-10T12:45:09;100196.25;;;17.27;40.46
72570;BME280;60594;50.204;8.844;2023-04-10T12:47:46;100182.91;;;17.17;42.23
72570;BME280;60594;50.204;8.844;2023-04-10T12:50:15;100183.47;;;17.37;41.85
72570;BME280;60594;50.204;8.844;2023-04-10T12:52:43;100186.56;;;17.58;41.30
72570;BME280;60594;50.204;8.844;2023-04-10T12:55:15;100179.31;;;17.58;41.99
72570;BME280;60594;50.204;8.844;2023-04-10T12:57:44;100177.13;;;17.46;39.54
72570;BME280;60594;50.204;8.844;2023-04-10T13:00:16;100166.66;;;17.59;38.86
72570;BME280;60594;50.204;8.844;2023-04-10T13:02:44;100170.69;;;17.63;39.01
72570;BME280;60594;50.204;8.844;2023-04-10T13:05:11;100169.81;;;17.38;38.17
72570;BME280;60594;50.204;8.844;2023-04-10T13:07:38;100152.97;;;17.20;38.89
72570;BME280;60594;50.204;8.844;2023-04-10T13:10:06;100148.13;;;17.48;40.57
72570;BME280;60594;50.204;8.844;2023-04-10T13:12:34;100144.28;;;17.66;39.56
72570;BME280;60594;50.204;8.844;2023-04-10T13:15:01;100144.41;;;17.89;43.34
72570;BME280;60594;50.204;8.844;2023-04-10T13:17:28;100128.09;;;17.74;37.91
72570;BME280;60594;50.204;8.844;2023-04-10T13:19:54;100131.78;;;17.65;37.97
72570;BME280;60594;50.204;8.844;2023-04-10T13:22:21;100121.84;;;17.90;39.77
72570;BME280;60594;50.204;8.844;2023-04-10T13:24:47;100120.31;;;17.79;39.89
72570;BME280;60594;50.204;8.844;2023-04-10T13:27:14;100114.06;;;17.95;39.78
72570;BME280;60594;50.204;8.844;2023-04-10T13:29:41;100111.38;;;17.87;37.12
72570;BME280;60594;50.204;8.844;2023-04-10T13:32:08;100105.66;;;17.82;37.98
72570;BME280;60594;50.204;8.844;2023-04-10T13:34:35;100109.56;;;17.71;37.49
72570;BME280;60594;50.204;8.844;2023-04-10T13:37:02;100103.75;;;18.06;37.99
72570;BME280;60594;50.204;8.844;2023-04-10T13:39:29;100104.06;;;18.11;36.26
72570;BME280;60594;50.204;8.844;2023-04-10T13:41:57;100103.63;;;17.92;37.46
72570;BME280;60594;50.204;8.844;2023-04-10T13:44:23;100094.69;;;17.91;35.82
72570;BME280;60594;50.204;8.844;2023-04-10T13:46:50;100095.53;;;17.84;34.87
72570;BME280;60594;50.204;8.844;2023-04-10T13:49:17;100085.94;;;17.81;36.06
72570;BME280;60594;50.204;8.844;2023-04-10T13:51:45;100090.09;;;18.00;38.15